CheckWX is a tool to help pilots better visualize weather data.  It is not intended as a substitute for an official pre-flight weather briefing.

06:46:39 UTC

CYMO METAR
Moosonee Airport
Moosonee, Canada
Current

47 mins ago

CYMO 210600Z AUTO 32007KT 9SM OVC004 01/00 A3001 RMK SLP163
Observed
May-21 @ 06:00 UTC
Wind
  • 320° at 7 KTS
Visibility
9 SM
Flight Rules
LIFR
Cloud Levels
  • Overcast at 400' AGL
Temperature
C / 34°F
Dewpoint
C / 32°F
Humidity
93%
Altimeter
30.01" Hg
Pressure
1016.22 hPa
Previous

2 hours ago

CYMO 210500Z AUTO 34006KT 310V020 9SM OVC006 01/00 A3001 RMK SLP164
Observed
May-21 @ 05:00 UTC
Wind
  • 340° at 6 KTS
Visibility
9 SM
Flight Rules
IFR
Cloud Levels
  • Overcast at 600' AGL
Temperature
C / 34°F
Dewpoint
C / 32°F
Humidity
93%
Altimeter
30.01" Hg
Pressure
1016.22 hPa
Previous

3 hours ago

CYMO 210400Z AUTO 31005KT 9SM OVC006 01/00 A3000 RMK SLP160
Observed
May-21 @ 04:00 UTC
Wind
  • 310° at 5 KTS
Visibility
9 SM
Flight Rules
IFR
Cloud Levels
  • Overcast at 600' AGL
Temperature
C / 34°F
Dewpoint
C / 32°F
Humidity
93%
Altimeter
30" Hg
Pressure
1015.92 hPa